sensor_id;sensor_type;location;lat;lon;timestamp;pressure;altitude;pressure_sealevel;temperature;humidity
78751;BME280;68070;50.954;11.060;2023-04-24T00:00:13;97810.60;;;10.18;82.82
78751;BME280;68070;50.954;11.060;2023-04-24T00:02:59;97807.63;;;10.10;82.73
78751;BME280;68070;50.954;11.060;2023-04-24T00:05:44;97810.92;;;10.02;82.28
78751;BME280;68070;50.954;11.060;2023-04-24T00:08:28;97814.70;;;10.05;82.85
78751;BME280;68070;50.954;11.060;2023-04-24T00:11:13;97815.04;;;10.03;82.97
78751;BME280;68070;50.954;11.060;2023-04-24T00:13:57;97818.71;;;10.00;83.79
78751;BME280;68070;50.954;11.060;2023-04-24T00:16:41;97813.36;;;9.98;83.73
78751;BME280;68070;50.954;11.060;2023-04-24T00:19:26;97807.16;;;9.98;83.82
78751;BME280;68070;50.954;11.060;2023-04-24T00:22:11;97812.04;;;9.97;84.20
78751;BME280;68070;50.954;11.060;2023-04-24T00:24:57;97808.74;;;9.88;84.44
78751;BME280;68070;50.954;11.060;2023-04-24T00:27:41;97807.90;;;9.88;84.27
78751;BME280;68070;50.954;11.060;2023-04-24T00:30:26;97812.09;;;9.96;83.93
78751;BME280;68070;50.954;11.060;2023-04-24T00:33:10;97808.23;;;9.98;83.60
78751;BME280;68070;50.954;11.060;2023-04-24T00:35:55;97803.77;;;9.98;83.63
78751;BME280;68070;50.954;11.060;2023-04-24T00:38:39;97809.48;;;9.98;83.26
78751;BME280;68070;50.954;11.060;2023-04-24T00:41:25;97805.74;;;9.96;83.54
78751;BME280;68070;50.954;11.060;2023-04-24T00:44:09;97801.70;;;9.90;83.08
78751;BME280;68070;50.954;11.060;2023-04-24T00:46:54;97807.09;;;9.87;83.29
78751;BME280;68070;50.954;11.060;2023-04-24T00:49:39;97801.02;;;9.82;83.14
78751;BME280;68070;50.954;11.060;2023-04-24T00:52:23;97797.77;;;9.77;83.22
78751;BME280;68070;50.954;11.060;2023-04-24T00:55:08;97806.77;;;9.71;83.09
78751;BME280;68070;50.954;11.060;2023-04-24T00:57:53;97811.52;;;9.74;82.96
78751;BME280;68070;50.954;11.060;2023-04-24T01:00:38;97805.45;;;9.70;83.04
78751;BME280;68070;50.954;11.060;2023-04-24T01:03:29;97806.20;;;9.67;82.68
78751;BME280;68070;50.954;11.060;2023-04-24T01:06:16;97803.69;;;9.68;82.37
78751;BME280;68070;50.954;11.060;2023-04-24T01:09:01;97801.98;;;9.73;82.39
78751;BME280;68070;50.954;11.060;2023-04-24T01:11:47;97797.83;;;9.72;82.27
78751;BME280;68070;50.954;11.060;2023-04-24T01:14:33;97798.33;;;9.72;81.90
78751;BME280;68070;50.954;11.060;2023-04-24T01:17:17;97794.99;;;9.67;81.45
78751;BME280;68070;50.954;11.060;2023-04-24T01:20:01;97792.53;;;9.65;81.57
78751;BME280;68070;50.954;11.060;2023-04-24T01:22:49;97794.61;;;9.62;81.93
78751;BME280;68070;50.954;11.060;2023-04-24T01:25:34;97787.60;;;9.57;81.72
78751;BME280;68070;50.954;11.060;2023-04-24T01:28:19;97787.19;;;9.54;81.81
78751;BME280;68070;50.954;11.060;2023-04-24T01:31:04;97789.33;;;9.52;82.20
78751;BME280;68070;50.954;11.060;2023-04-24T01:33:49;97790.64;;;9.47;82.38
78751;BME280;68070;50.954;11.060;2023-04-24T01:36:35;97791.95;;;9.47;81.94
78751;BME280;68070;50.954;11.060;2023-04-24T01:39:20;97791.84;;;9.48;81.37
78751;BME280;68070;50.954;11.060;2023-04-24T01:42:12;97793.73;;;9.50;81.60
78751;BME280;68070;50.954;11.060;2023-04-24T01:44:57;97794.05;;;9.45;82.03
78751;BME280;68070;50.954;11.060;2023-04-24T01:47:42;97791.95;;;9.34;81.65
78751;BME280;68070;50.954;11.060;2023-04-24T01:50:27;97793.14;;;9.27;82.04
78751;BME280;68070;50.954;11.060;2023-04-24T01:53:12;97787.54;;;9.26;82.85
78751;BME280;68070;50.954;11.060;2023-04-24T01:56:24;97781.73;;;9.24;82.91
78751;BME280;68070;50.954;11.060;2023-04-24T01:59:11;97779.23;;;9.24;82.72
78751;BME280;68070;50.954;11.060;2023-04-24T02:01:55;97774.02;;;9.27;82.61
78751;BME280;68070;50.954;11.060;2023-04-24T02:04:40;97766.17;;;9.27;82.64
78751;BME280;68070;50.954;11.060;2023-04-24T02:07:25;97759.73;;;9.23;82.68
78751;BME280;68070;50.954;11.060;2023-04-24T02:13:35;97755.75;;;9.34;82.77
78751;BME280;68070;50.954;11.060;2023-04-24T02:16:19;97749.85;;;9.39;82.85
78751;BME280;68070;50.954;11.060;2023-04-24T02:19:04;97749.23;;;9.37;82.71
78751;BME280;68070;50.954;11.060;2023-04-24T02:21:48;97745.63;;;9.36;82.41
78751;BME280;68070;50.954;11.060;2023-04-24T02:24:33;97748.26;;;9.37;82.68
78751;BME280;68070;50.954;11.060;2023-04-24T02:27:17;97750.50;;;9.37;82.74
78751;BME280;68070;50.954;11.060;2023-04-24T02:30:02;97754.04;;;9.34;82.67
78751;BME280;68070;50.954;11.060;2023-04-24T02:32:47;97752.09;;;9.35;82.86
78751;BME280;68070;50.954;11.060;2023-04-24T02:35:31;97750.71;;;9.37;82.79
78751;BME280;68070;50.954;11.060;2023-04-24T02:38:16;97751.70;;;9.34;82.73
78751;BME280;68070;50.954;11.060;2023-04-24T02:41:00;97750.66;;;9.30;82.58
78751;BME280;68070;50.954;11.060;2023-04-24T02:43:46;97738.42;;;9.26;82.84
78751;BME280;68070;50.954;11.060;2023-04-24T02:46:30;97740.29;;;9.30;82.66
78751;BME280;68070;50.954;11.060;2023-04-24T02:49:15;97743.80;;;9.31;82.45
78751;BME280;68070;50.954;11.060;2023-04-24T02:51:59;97752.58;;;9.28;82.71
78751;BME280;68070;50.954;11.060;2023-04-24T02:54:44;97753.76;;;9.29;82.83
78751;BME280;68070;50.954;11.060;2023-04-24T02:57:28;97746.55;;;9.26;82.63
78751;BME280;68070;50.954;11.060;2023-04-24T03:00:13;97744.09;;;9.26;82.68
78751;BME280;68070;50.954;11.060;2023-04-24T03:02:58;97750.90;;;9.27;82.44
78751;BME280;68070;50.954;11.060;2023-04-24T03:05:42;97747.70;;;9.23;82.07
78751;BME280;68070;50.954;11.060;2023-04-24T03:08:27;97745.74;;;9.25;82.43
78751;BME280;68070;50.954;11.060;2023-04-24T03:11:11;97740.80;;;9.25;82.68
78751;BME280;68070;50.954;11.060;2023-04-24T03:13:56;97739.95;;;9.24;82.61
78751;BME280;68070;50.954;11.060;2023-04-24T03:16:41;97728.53;;;9.15;82.39
78751;BME280;68070;50.954;11.060;2023-04-24T03:19:25;97726.14;;;9.18;82.20
78751;BME280;68070;50.954;11.060;2023-04-24T03:22:16;97728.84;;;9.20;82.33
78751;BME280;68070;50.954;11.060;2023-04-24T03:25:01;97728.14;;;9.20;82.28
78751;BME280;68070;50.954;11.060;2023-04-24T03:27:45;97727.99;;;9.15;82.15
78751;BME280;68070;50.954;11.060;2023-04-24T03:30:45;97721.22;;;9.14;82.26
78751;BME280;68070;50.954;11.060;2023-04-24T03:33:29;97709.39;;;9.21;81.88
78751;BME280;68070;50.954;11.060;2023-04-24T03:36:17;97709.95;;;9.25;81.76
78751;BME280;68070;50.954;11.060;2023-04-24T03:39:03;97711.31;;;9.29;81.48
78751;BME280;68070;50.954;11.060;2023-04-24T03:41:51;97717.94;;;9.27;81.35
78751;BME280;68070;50.954;11.060;2023-04-24T03:44:40;97718.23;;;9.43;80.96
78751;BME280;68070;50.954;11.060;2023-04-24T03:47:25;97718.20;;;9.51;80.68
78751;BME280;68070;50.954;11.060;2023-04-24T03:50:10;97720.62;;;9.48;80.78
78751;BME280;68070;50.954;11.060;2023-04-24T03:52:54;97722.66;;;9.51;80.59
78751;BME280;68070;50.954;11.060;2023-04-24T03:55:48;97718.12;;;9.48;80.83
78751;BME280;68070;50.954;11.060;2023-04-24T03:58:32;97721.41;;;9.43;80.97
78751;BME280;68070;50.954;11.060;2023-04-24T04:01:17;97722.85;;;9.37;80.84
78751;BME280;68070;50.954;11.060;2023-04-24T04:04:10;97727.84;;;9.39;80.71
78751;BME280;68070;50.954;11.060;2023-04-24T04:06:54;97727.88;;;9.40;80.96
78751;BME280;68070;50.954;11.060;2023-04-24T04:09:40;97728.77;;;9.44;80.85
78751;BME280;68070;50.954;11.060;2023-04-24T04:12:24;97727.79;;;9.39;80.70
78751;BME280;68070;50.954;11.060;2023-04-24T04:15:09;97727.94;;;9.43;80.71
78751;BME280;68070;50.954;11.060;2023-04-24T04:17:54;97727.00;;;9.46;80.68
78751;BME280;68070;50.954;11.060;2023-04-24T04:20:38;97727.70;;;9.50;80.17
78751;BME280;68070;50.954;11.060;2023-04-24T04:23:23;97731.75;;;9.48;80.01
78751;BME280;68070;50.954;11.060;2023-04-24T04:26:25;97735.99;;;9.46;79.78
78751;BME280;68070;50.954;11.060;2023-04-24T04:29:30;97731.51;;;9.49;80.18
78751;BME280;68070;50.954;11.060;2023-04-24T04:32:15;97731.06;;;9.46;80.81
78751;BME280;68070;50.954;11.060;2023-04-24T04:35:01;97731.73;;;9.46;80.24
78751;BME280;68070;50.954;11.060;2023-04-24T04:37:47;97728.35;;;9.47;80.35
78751;BME280;68070;50.954;11.060;2023-04-24T04:40:54;97726.77;;;9.54;79.93
78751;BME280;68070;50.954;11.060;2023-04-24T04:43:40;97725.22;;;9.60;79.93
78751;BME280;68070;50.954;11.060;2023-04-24T04:46:28;97727.65;;;9.60;79.59
78751;BME280;68070;50.954;11.060;2023-04-24T04:49:45;97725.19;;;9.62;79.76
78751;BME280;68070;50.954;11.060;2023-04-24T04:52:41;97729.98;;;9.79;79.33
78751;BME280;68070;50.954;11.060;2023-04-24T04:55:36;97728.96;;;9.96;78.76
78751;BME280;68070;50.954;11.060;2023-04-24T04:58:32;97728.71;;;10.07;78.33
78751;BME280;68070;50.954;11.060;2023-04-24T05:01:17;97729.73;;;10.11;78.17
78751;BME280;68070;50.954;11.060;2023-04-24T05:04:04;97740.76;;;10.11;78.43
78751;BME280;68070;50.954;11.060;2023-04-24T05:06:49;97736.86;;;10.16;78.35
78751;BME280;68070;50.954;11.060;2023-04-24T05:09:35;97739.39;;;10.19;78.33
78751;BME280;68070;50.954;11.060;2023-04-24T05:12:22;97745.94;;;10.18;78.46
78751;BME280;68070;50.954;11.060;2023-04-24T05:15:09;97747.37;;;10.24;78.18
78751;BME280;68070;50.954;11.060;2023-04-24T05:17:54;97748.95;;;10.30;77.58
78751;BME280;68070;50.954;11.060;2023-04-24T05:20:40;97752.35;;;10.31;77.49
78751;BME280;68070;50.954;11.060;2023-04-24T05:23:28;97755.45;;;10.31;77.45
78751;BME280;68070;50.954;11.060;2023-04-24T05:26:13;97755.23;;;10.35;77.98
78751;BME280;68070;50.954;11.060;2023-04-24T05:28:59;97758.23;;;10.45;77.42
78751;BME280;68070;50.954;11.060;2023-04-24T05:31:43;97756.46;;;10.48;76.98
78751;BME280;68070;50.954;11.060;2023-04-24T05:34:28;97756.65;;;10.59;76.74
78751;BME280;68070;50.954;11.060;2023-04-24T05:37:13;97756.36;;;10.68;76.14
78751;BME280;68070;50.954;11.060;2023-04-24T05:39:58;97757.60;;;10.72;76.02
78751;BME280;68070;50.954;11.060;2023-04-24T05:42:42;97761.11;;;10.79;75.64
78751;BME280;68070;50.954;11.060;2023-04-24T05:45:27;97759.33;;;10.96;74.10
78751;BME280;68070;50.954;11.060;2023-04-24T05:48:11;97758.82;;;11.09;74.17
78751;BME280;68070;50.954;11.060;2023-04-24T05:50:55;97764.05;;;11.23;73.39
78751;BME280;68070;50.954;11.060;2023-04-24T05:53:41;97765.80;;;11.29;73.75
78751;BME280;68070;50.954;11.060;2023-04-24T05:56:25;97764.18;;;11.34;72.32
78751;BME280;68070;50.954;11.060;2023-04-24T05:59:09;97763.40;;;11.33;72.74
78751;BME280;68070;50.954;11.060;2023-04-24T06:01:54;97762.19;;;11.32;72.45
78751;BME280;68070;50.954;11.060;2023-04-24T06:04:39;97767.50;;;11.36;71.91
78751;BME280;68070;50.954;11.060;2023-04-24T06:07:24;97767.04;;;11.45;72.22
78751;BME280;68070;50.954;11.060;2023-04-24T06:10:11;97766.45;;;11.47;71.85
78751;BME280;68070;50.954;11.060;2023-04-24T06:12:59;97763.35;;;11.52;71.54
78751;BME280;68070;50.954;11.060;2023-04-24T06:15:47;97766.36;;;11.59;70.28
78751;BME280;68070;50.954;11.060;2023-04-24T06:18:39;97771.13;;;11.54;70.06
78751;BME280;68070;50.954;11.060;2023-04-24T06:21:23;97774.98;;;11.46;70.71
78751;BME280;68070;50.954;11.060;2023-04-24T06:24:08;97776.35;;;11.44;70.66
78751;BME280;68070;50.954;11.060;2023-04-24T06:26:53;97781.40;;;11.48;70.61
78751;BME280;68070;50.954;11.060;2023-04-24T06:29:38;97776.67;;;11.49;69.75
78751;BME280;68070;50.954;11.060;2023-04-24T06:32:23;97777.73;;;11.49;69.01
78751;BME280;68070;50.954;11.060;2023-04-24T06:35:08;97780.56;;;11.56;68.89
78751;BME280;68070;50.954;11.060;2023-04-24T06:37:53;97782.02;;;11.74;68.79
78751;BME280;68070;50.954;11.060;2023-04-24T06:40:40;97780.67;;;11.86;67.91
78751;BME280;68070;50.954;11.060;2023-04-24T06:43:24;97784.88;;;11.88;67.39
78751;BME280;68070;50.954;11.060;2023-04-24T06:46:08;97781.90;;;11.81;67.06
78751;BME280;68070;50.954;11.060;2023-04-24T06:48:54;97785.88;;;11.80;68.32
78751;BME280;68070;50.954;11.060;2023-04-24T06:51:39;97780.27;;;11.84;67.75
78751;BME280;68070;50.954;11.060;2023-04-24T06:54:23;97779.98;;;11.86;67.69
78751;BME280;68070;50.954;11.060;2023-04-24T06:57:08;97782.24;;;11.81;68.26
78751;BME280;68070;50.954;11.060;2023-04-24T06:59:53;97783.62;;;11.79;67.72
78751;BME280;68070;50.954;11.060;2023-04-24T07:02:38;97785.15;;;11.78;68.76
78751;BME280;68070;50.954;11.060;2023-04-24T07:05:22;97785.41;;;11.76;68.93
78751;BME280;68070;50.954;11.060;2023-04-24T07:08:07;97784.09;;;11.74;69.23
78751;BME280;68070;50.954;11.060;2023-04-24T07:10:56;97786.48;;;11.70;65.63
78751;BME280;68070;50.954;11.060;2023-04-24T07:13:40;97786.28;;;11.67;65.94
78751;BME280;68070;50.954;11.060;2023-04-24T07:16:28;97785.41;;;11.56;65.71
78751;BME280;68070;50.954;11.060;2023-04-24T07:19:13;97783.36;;;11.65;65.08
78751;BME280;68070;50.954;11.060;2023-04-24T07:21:57;97781.62;;;11.67;65.69
78751;BME280;68070;50.954;11.060;2023-04-24T07:24:43;97785.55;;;11.78;65.50
78751;BME280;68070;50.954;11.060;2023-04-24T07:27:28;97782.86;;;11.85;65.43
78751;BME280;68070;50.954;11.060;2023-04-24T07:30:12;97787.84;;;12.10;64.98
78751;BME280;68070;50.954;11.060;2023-04-24T07:32:56;97794.70;;;12.27;64.48
78751;BME280;68070;50.954;11.060;2023-04-24T07:35:41;97792.84;;;12.44;63.19
78751;BME280;68070;50.954;11.060;2023-04-24T07:38:25;97793.23;;;12.50;62.95
78751;BME280;68070;50.954;11.060;2023-04-24T07:41:10;97792.76;;;12.77;62.39
78751;BME280;68070;50.954;11.060;2023-04-24T07:43:54;97796.76;;;13.30;60.69
78751;BME280;68070;50.954;11.060;2023-04-24T07:46:40;97797.81;;;13.48;58.88
78751;BME280;68070;50.954;11.060;2023-04-24T07:49:24;97796.17;;;13.40;59.83
78751;BME280;68070;50.954;11.060;2023-04-24T07:52:09;97803.19;;;13.54;58.91
78751;BME280;68070;50.954;11.060;2023-04-24T07:54:54;97811.10;;;13.55;58.29
78751;BME280;68070;50.954;11.060;2023-04-24T07:57:42;97813.97;;;13.82;58.32
78751;BME280;68070;50.954;11.060;2023-04-24T08:00:26;97818.10;;;14.50;57.85
78751;BME280;68070;50.954;11.060;2023-04-24T08:03:11;97816.63;;;15.18;53.36
78751;BME280;68070;50.954;11.060;2023-04-24T08:05:56;97818.08;;;15.90;52.39
78751;BME280;68070;50.954;11.060;2023-04-24T08:08:41;97820.15;;;17.16;49.03
78751;BME280;68070;50.954;11.060;2023-04-24T08:11:26;97826.10;;;17.06;48.93
78751;BME280;68070;50.954;11.060;2023-04-24T08:14:10;97817.14;;;16.08;49.64
78751;BME280;68070;50.954;11.060;2023-04-24T08:16:56;97822.58;;;15.59;50.30
78751;BME280;68070;50.954;11.060;2023-04-24T08:19:40;97820.63;;;15.34;51.19
78751;BME280;68070;50.954;11.060;2023-04-24T08:22:31;97825.67;;;15.06;50.15
78751;BME280;68070;50.954;11.060;2023-04-24T08:25:16;97826.16;;;14.75;52.43
78751;BME280;68070;50.954;11.060;2023-04-24T08:28:03;97831.08;;;14.70;53.82
78751;BME280;68070;50.954;11.060;2023-04-24T08:30:47;97836.52;;;14.43;53.60
78751;BME280;68070;50.954;11.060;2023-04-24T08:33:32;97840.48;;;13.94;53.70
78751;BME280;68070;50.954;11.060;2023-04-24T08:36:18;97841.55;;;13.58;54.66
78751;BME280;68070;50.954;11.060;2023-04-24T08:39:03;97840.73;;;13.26;52.39
78751;BME280;68070;50.954;11.060;2023-04-24T08:41:48;97847.74;;;13.03;51.02
78751;BME280;68070;50.954;11.060;2023-04-24T08:44:35;97847.11;;;13.08;51.20
78751;BME280;68070;50.954;11.060;2023-04-24T08:47:20;97853.73;;;14.12;50.05
78751;BME280;68070;50.954;11.060;2023-04-24T08:53:39;97860.79;;;14.68;47.54
78751;BME280;68070;50.954;11.060;2023-04-24T08:56:24;97855.80;;;15.46;46.43
78751;BME280;68070;50.954;11.060;2023-04-24T08:59:08;97854.02;;;16.88;41.86
78751;BME280;68070;50.954;11.060;2023-04-24T09:01:53;97854.16;;;17.60;40.75
78751;BME280;68070;50.954;11.060;2023-04-24T09:04:39;97846.96;;;17.98;39.52
78751;BME280;68070;50.954;11.060;2023-04-24T09:07:24;97846.08;;;17.71;39.25
78751;BME280;68070;50.954;11.060;2023-04-24T09:10:10;97848.29;;;17.87;39.09
78751;BME280;68070;50.954;11.060;2023-04-24T09:12:54;97852.66;;;17.40;39.67
78751;BME280;68070;50.954;11.060;2023-04-24T09:15:40;97849.70;;;17.25;40.30
78751;BME280;68070;50.954;11.060;2023-04-24T09:18:25;97851.79;;;17.92;38.64
78751;BME280;68070;50.954;11.060;2023-04-24T09:21:10;97857.73;;;18.65;37.07
78751;BME280;68070;50.954;11.060;2023-04-24T09:23:58;97854.46;;;19.32;35.21
78751;BME280;68070;50.954;11.060;2023-04-24T09:26:43;97854.04;;;19.77;32.85
78751;BME280;68070;50.954;11.060;2023-04-24T09:29:27;97853.67;;;19.60;32.52
78751;BME280;68070;50.954;11.060;2023-04-24T09:32:18;97858.14;;;19.58;33.34
78751;BME280;68070;50.954;11.060;2023-04-24T09:37:51;97860.98;;;19.07;33.71
78751;BME280;68070;50.954;11.060;2023-04-24T09:40:36;97870.89;;;19.25;35.13
78751;BME280;68070;50.954;11.060;2023-04-24T09:43:20;97877.84;;;19.24;34.11
78751;BME280;68070;50.954;11.060;2023-04-24T09:49:46;97886.15;;;18.27;34.42
78751;BME280;68070;50.954;11.060;2023-04-24T09:52:30;97883.73;;;17.66;34.62
78751;BME280;68070;50.954;11.060;2023-04-24T09:55:19;97887.48;;;16.89;36.76
78751;BME280;68070;50.954;11.060;2023-04-24T09:58:04;97888.21;;;16.66;37.97
78751;BME280;68070;50.954;11.060;2023-04-24T10:00:49;97885.16;;;16.40;37.74
78751;BME280;68070;50.954;11.060;2023-04-24T10:03:37;97870.91;;;16.47;38.38
78751;BME280;68070;50.954;11.060;2023-04-24T10:06:21;97881.85;;;16.51;37.96
78751;BME280;68070;50.954;11.060;2023-04-24T10:12:47;97885.16;;;18.32;33.31
78751;BME280;68070;50.954;11.060;2023-04-24T10:15:31;97894.13;;;19.19;32.78
78751;BME280;68070;50.954;11.060;2023-04-24T10:18:15;97906.17;;;18.92;32.16
78751;BME280;68070;50.954;11.060;2023-04-24T10:21:00;97916.96;;;19.13;32.28
78751;BME280;68070;50.954;11.060;2023-04-24T10:23:45;97920.33;;;19.37;31.77
78751;BME280;68070;50.954;11.060;2023-04-24T10:26:30;97916.59;;;19.50;31.50
78751;BME280;68070;50.954;11.060;2023-04-24T10:29:16;97912.57;;;19.92;29.97
78751;BME280;68070;50.954;11.060;2023-04-24T10:32:01;97908.63;;;19.72;29.49
78751;BME280;68070;50.954;11.060;2023-04-24T10:34:45;97924.73;;;19.61;30.83
78751;BME280;68070;50.954;11.060;2023-04-24T10:37:33;97919.31;;;19.75;30.20
78751;BME280;68070;50.954;11.060;2023-04-24T10:40:19;97916.14;;;19.05;30.52
78751;BME280;68070;50.954;11.060;2023-04-24T10:43:09;97914.42;;;19.33;32.65
78751;BME280;68070;50.954;11.060;2023-04-24T10:46:02;97921.17;;;19.03;33.16
78751;BME280;68070;50.954;11.060;2023-04-24T10:48:54;97925.29;;;19.28;31.26
78751;BME280;68070;50.954;11.060;2023-04-24T10:51:46;97923.33;;;19.76;30.79
78751;BME280;68070;50.954;11.060;2023-04-24T10:54:34;97922.70;;;19.45;30.44
78751;BME280;68070;50.954;11.060;2023-04-24T11:00:24;97921.35;;;18.83;32.93
78751;BME280;68070;50.954;11.060;2023-04-24T11:03:32;97924.15;;;18.88;32.74
78751;BME280;68070;50.954;11.060;2023-04-24T11:06:14;97925.94;;;19.26;32.14
78751;BME280;68070;50.954;11.060;2023-04-24T11:09:05;97916.91;;;19.93;31.26
78751;BME280;68070;50.954;11.060;2023-04-24T11:11:50;97916.19;;;20.08;31.39
78751;BME280;68070;50.954;11.060;2023-04-24T11:14:59;97922.64;;;20.52;30.93
78751;BME280;68070;50.954;11.060;2023-04-24T11:17:43;97923.84;;;20.39;29.88
78751;BME280;68070;50.954;11.060;2023-04-24T11:20:28;97927.12;;;19.60;31.15
78751;BME280;68070;50.954;11.060;2023-04-24T11:23:12;97921.42;;;18.78;31.72
78751;BME280;68070;50.954;11.060;2023-04-24T11:26:18;97919.73;;;17.97;33.82
78751;BME280;68070;50.954;11.060;2023-04-24T11:29:07;97922.79;;;17.86;33.82
78751;BME280;68070;50.954;11.060;2023-04-24T11:31:51;97916.41;;;17.64;34.61
78751;BME280;68070;50.954;11.060;2023-04-24T11:34:36;97924.41;;;17.40;35.35
78751;BME280;68070;50.954;11.060;2023-04-24T11:37:43;97933.92;;;17.19;34.65
78751;BME280;68070;50.954;11.060;2023-04-24T11:40:26;97930.80;;;16.41;35.28
78751;BME280;68070;50.954;11.060;2023-04-24T11:43:11;97934.95;;;16.30;37.09
78751;BME280;68070;50.954;11.060;2023-04-24T11:45:56;97931.84;;;16.25;36.34
78751;BME280;68070;50.954;11.060;2023-04-24T11:48:46;97938.34;;;15.98;37.46
78751;BME280;68070;50.954;11.060;2023-04-24T11:51:31;97935.55;;;15.89;38.14
78751;BME280;68070;50.954;11.060;2023-04-24T11:54:16;97933.02;;;16.02;39.48
78751;BME280;68070;50.954;11.060;2023-04-24T11:57:03;97937.40;;;16.14;38.92
78751;BME280;68070;50.954;11.060;2023-04-24T11:59:48;97942.08;;;15.97;39.87
78751;BME280;68070;50.954;11.060;2023-04-24T12:02:33;97946.00;;;15.51;40.14
78751;BME280;68070;50.954;11.060;2023-04-24T12:05:20;97946.06;;;15.48;41.13
78751;BME280;68070;50.954;11.060;2023-04-24T12:08:05;97941.05;;;15.50;42.01
78751;BME280;68070;50.954;11.060;2023-04-24T12:10:50;97946.19;;;15.54;41.70
78751;BME280;68070;50.954;11.060;2023-04-24T12:13:35;97948.55;;;15.52;41.16
78751;BME280;68070;50.954;11.060;2023-04-24T12:16:20;97953.80;;;14.99;41.57
78751;BME280;68070;50.954;11.060;2023-04-24T12:19:04;97948.72;;;14.97;42.74
78751;BME280;68070;50.954;11.060;2023-04-24T12:22:04;97958.67;;;15.24;41.55
78751;BME280;68070;50.954;11.060;2023-04-24T12:24:56;97956.00;;;14.93;41.83
78751;BME280;68070;50.954;11.060;2023-04-24T12:27:41;97958.59;;;15.19;41.30
78751;BME280;68070;50.954;11.060;2023-04-24T12:30:28;97956.16;;;15.24;41.30
78751;BME280;68070;50.954;11.060;2023-04-24T12:33:20;97954.88;;;15.28;41.36
78751;BME280;68070;50.954;11.060;2023-04-24T12:36:04;97955.21;;;15.26;41.92
78751;BME280;68070;50.954;11.060;2023-04-24T12:38:52;97964.36;;;15.01;41.02
78751;BME280;68070;50.954;11.060;2023-04-24T12:41:37;97959.66;;;14.87;41.20
78751;BME280;68070;50.954;11.060;2023-04-24T12:44:37;97957.31;;;14.87;42.19
78751;BME280;68070;50.954;11.060;2023-04-24T12:47:21;97966.78;;;14.73;42.20
78751;BME280;68070;50.954;11.060;2023-04-24T12:50:07;97966.73;;;14.65;43.04
78751;BME280;68070;50.954;11.060;2023-04-24T12:52:52;97979.29;;;14.42;44.82
78751;BME280;68070;50.954;11.060;2023-04-24T12:55:37;97999.86;;;14.19;47.73
78751;BME280;68070;50.954;11.060;2023-04-24T12:58:21;97993.73;;;14.20;50.18
78751;BME280;68070;50.954;11.060;2023-04-24T13:01:06;97992.94;;;14.54;50.59
78751;BME280;68070;50.954;11.060;2023-04-24T13:03:50;97994.92;;;14.48;48.56
78751;BME280;68070;50.954;11.060;2023-04-24T13:06:34;97991.31;;;14.09;48.82
78751;BME280;68070;50.954;11.060;2023-04-24T13:09:19;97998.56;;;14.08;49.38
78751;BME280;68070;50.954;11.060;2023-04-24T13:12:03;97995.18;;;14.44;48.75
78751;BME280;68070;50.954;11.060;2023-04-24T13:14:49;97996.77;;;14.56;47.82
78751;BME280;68070;50.954;11.060;2023-04-24T13:17:34;97992.35;;;14.44;47.49
78751;BME280;68070;50.954;11.060;2023-04-24T13:20:18;97990.50;;;14.44;47.81
78751;BME280;68070;50.954;11.060;2023-04-24T13:23:03;97998.63;;;14.63;47.48
78751;BME280;68070;50.954;11.060;2023-04-24T13:25:47;98002.59;;;14.86;46.24
78751;BME280;68070;50.954;11.060;2023-04-24T13:28:32;98009.57;;;14.49;46.12
78751;BME280;68070;50.954;11.060;2023-04-24T13:31:17;98016.61;;;14.17;47.03
78751;BME280;68070;50.954;11.060;2023-04-24T13:34:02;98014.31;;;14.00;47.36
78751;BME280;68070;50.954;11.060;2023-04-24T13:36:47;98013.59;;;13.95;48.72
78751;BME280;68070;50.954;11.060;2023-04-24T13:39:32;98014.33;;;13.83;49.52
78751;BME280;68070;50.954;11.060;2023-04-24T13:42:16;98006.67;;;13.93;49.28
78751;BME280;68070;50.954;11.060;2023-04-24T13:45:00;98006.73;;;14.16;49.08
78751;BME280;68070;50.954;11.060;2023-04-24T13:47:45;98012.26;;;14.39;48.40
78751;BME280;68070;50.954;11.060;2023-04-24T13:50:29;98013.49;;;14.60;47.61
78751;BME280;68070;50.954;11.060;2023-04-24T13:53:14;98011.40;;;14.51;46.72
78751;BME280;68070;50.954;11.060;2023-04-24T13:55:58;98027.95;;;14.23;48.40
78751;BME280;68070;50.954;11.060;2023-04-24T13:58:42;98035.92;;;13.71;52.54
78751;BME280;68070;50.954;11.060;2023-04-24T14:01:27;98046.81;;;13.20;56.59
78751;BME280;68070;50.954;11.060;2023-04-24T14:04:11;98045.21;;;12.99;60.81
78751;BME280;68070;50.954;11.060;2023-04-24T14:06:55;98041.77;;;13.08;62.56
78751;BME280;68070;50.954;11.060;2023-04-24T14:09:40;98036.35;;;13.07;62.58
78751;BME280;68070;50.954;11.060;2023-04-24T14:12:25;98035.30;;;12.95;62.74
78751;BME280;68070;50.954;11.060;2023-04-24T14:15:10;98037.91;;;12.92;61.45
78751;BME280;68070;50.954;11.060;2023-04-24T14:17:55;98041.66;;;13.02;60.83
78751;BME280;68070;50.954;11.060;2023-04-24T14:20:40;98037.61;;;13.07;58.84
78751;BME280;68070;50.954;11.060;2023-04-24T14:23:24;98043.08;;;13.20;58.00
78751;BME280;68070;50.954;11.060;2023-04-24T14:26:09;98039.59;;;13.44;56.70
78751;BME280;68070;50.954;11.060;2023-04-24T14:28:53;98037.67;;;13.24;55.73
78751;BME280;68070;50.954;11.060;2023-04-24T14:31:38;98038.92;;;13.08;55.11
78751;BME280;68070;50.954;11.060;2023-04-24T14:34:23;98037.05;;;13.00;54.59
78751;BME280;68070;50.954;11.060;2023-04-24T14:37:08;98038.77;;;12.83;54.16
78751;BME280;68070;50.954;11.060;2023-04-24T14:39:53;98052.12;;;12.71;54.04
78751;BME280;68070;50.954;11.060;2023-04-24T14:42:37;98053.18;;;12.64;53.77
78751;BME280;68070;50.954;11.060;2023-04-24T14:45:22;98066.59;;;12.56;54.54
78751;BME280;68070;50.954;11.060;2023-04-24T14:51:40;98071.41;;;12.65;57.76
78751;BME280;68070;50.954;11.060;2023-04-24T14:54:25;98066.36;;;12.58;56.98